F/V Le Mirador — FPHO — position and weather

sailwx.info

Track history (hours):
 
Tides and Currents Weather Stations Pressure Air Temp Water Temp Dewpoint Dewpoint Depression Visibility Wind Speed Wind Dir Waves Ship Positions

F/V Le Mirador

Last reported at 2014-Jul-18 00:33 UTC. Time now 2014-Jul-24 15:26 UTC.
Position N 46°27' W 003°21'.

Length 19 m; draft 2.8 m.

Type: Fishing. MMSI: 227901000.

Date/timePositionNaut miles runAvg speedWind from/ knotsBaromVisibWave heightAir tempDewpointWater temp
2014-Jul-18 00:33N 46°27' W 003°21'0 0.2
2014-Jul-17 23:33N 46°27' W 003°21'0 0.1
2014-Jul-17 22:30N 46°27' W 003°21'0 0.1
2014-Jul-17 21:24N 46°27' W 003°21'0 0.1
2014-Jul-17 20:24N 46°27' W 003°21'0 0.1
2014-Jul-17 19:33N 46°27' W 003°21'0 0.1
2014-Jul-17 18:33N 46°27' W 003°21'44 3.9
2014-Jul-17 07:14N 46°44' W 002°21'  
2014-Jul-11 17:24N 46°40' W 002°12'8 8.9
2014-Jul-11 16:33N 46°35' W 002°03'9 8.7
2014-Jul-11 15:34N 46°30' W 001°53'4 4.3
2014-Jul-11 14:34N 46°30' W 001°47'6 6.1
2014-Jul-11 13:34N 46°27' W 001°55'9 9.4
2014-Jul-11 12:33N 46°24' W 002°08'  
Track history (hours):
 
Tides and Currents Weather Stations Pressure Air Temp Water Temp Dewpoint Dewpoint Depression Visibility Wind Speed Wind Dir Waves Ship Positions

F/V Le Mirador

Last reported at 2014-Jul-18 00:33 UTC. Time now 2014-Jul-24 15:26 UTC.
Position N 46°27' W 003°21'.

Length 19 m; draft 2.8 m.

Type: Fishing. MMSI: 227901000.

Date/timePositionNaut miles runAvg speedWind from/ knotsBaromVisibWave heightAir tempDewpointWater temp
2014-Jul-18 00:33N 46°27' W 003°21'0 0.2
2014-Jul-17 23:33N 46°27' W 003°21'0 0.1
2014-Jul-17 22:30N 46°27' W 003°21'0 0.1
2014-Jul-17 21:24N 46°27' W 003°21'0 0.1
2014-Jul-17 20:24N 46°27' W 003°21'0 0.1
2014-Jul-17 19:33N 46°27' W 003°21'0 0.1
2014-Jul-17 18:33N 46°27' W 003°21'44 3.9
2014-Jul-17 07:14N 46°44' W 002°21'  
2014-Jul-11 17:24N 46°40' W 002°12'8 8.9
2014-Jul-11 16:33N 46°35' W 002°03'9 8.7
2014-Jul-11 15:34N 46°30' W 001°53'4 4.3
2014-Jul-11 14:34N 46°30' W 001°47'6 6.1
2014-Jul-11 13:34N 46°27' W 001°55'9 9.4
2014-Jul-11 12:33N 46°24' W 002°08'  

Dump ship's entire track history